Medicine Lodge, Kansas
Current Conditions -  °F | °C
As of 5:15 PM on Friday 19 Dec 2014 (Local Time) from KPTT Reporting Station
Overcast Overcast  
Wind Chill: 31°   Ceiling: 1500
Heat Index: 37°   Visibility: 10mi
Dew Point: 32°   Wind: 9mph
Humidity: 81%   Direction: 220°SW
Pressure: 30.15"   Gusts: NA
Location:  37.28°N, 98.58°W
Report Text: KPTT 192315Z AUTO 22008KT 10SM OVC015 03/00 A3015 RMK AO2
Loading
Personal Weather Stations






























Interactive Weather Map New forecast layout! Learn more

10-Day Weather Forecast

Advertisements
Track Severe Weather on mobile